sensor_id;sensor_type;location;lat;lon;timestamp;P1;durP1;ratioP1;P2;durP2;ratioP2
20697;SDS011;10508;50.956;4.640;2022-09-24T00:01:32;30.65;;;17.67;;
20697;SDS011;10508;50.956;4.640;2022-09-24T00:04:03;30.80;;;17.30;;
20697;SDS011;10508;50.956;4.640;2022-09-24T00:06:33;31.52;;;16.00;;
20697;SDS011;10508;50.956;4.640;2022-09-24T00:09:01;30.35;;;16.38;;
20697;SDS011;10508;50.956;4.640;2022-09-24T00:11:27;30.27;;;16.23;;
20697;SDS011;10508;50.956;4.640;2022-09-24T00:13:53;32.60;;;17.05;;
20697;SDS011;10508;50.956;4.640;2022-09-24T00:16:21;25.35;;;14.52;;
20697;SDS011;10508;50.956;4.640;2022-09-24T00:18:49;31.63;;;15.43;;
20697;SDS011;10508;50.956;4.640;2022-09-24T00:21:16;29.35;;;15.75;;
20697;SDS011;10508;50.956;4.640;2022-09-24T00:23:47;26.70;;;14.85;;
20697;SDS011;10508;50.956;4.640;2022-09-24T00:26:14;27.90;;;14.65;;
20697;SDS011;10508;50.956;4.640;2022-09-24T00:29:21;31.88;;;15.75;;
20697;SDS011;10508;50.956;4.640;2022-09-24T00:31:48;30.92;;;15.48;;
20697;SDS011;10508;50.956;4.640;2022-09-24T00:34:15;28.50;;;15.43;;
20697;SDS011;10508;50.956;4.640;2022-09-24T00:36:41;29.30;;;15.70;;
20697;SDS011;10508;50.956;4.640;2022-09-24T00:39:08;28.90;;;15.27;;
20697;SDS011;10508;50.956;4.640;2022-09-24T00:41:35;27.50;;;15.02;;
20697;SDS011;10508;50.956;4.640;2022-09-24T00:44:38;30.17;;;15.73;;
20697;SDS011;10508;50.956;4.640;2022-09-24T00:47:22;28.02;;;15.55;;
20697;SDS011;10508;50.956;4.640;2022-09-24T00:52:52;27.92;;;14.73;;
20697;SDS011;10508;50.956;4.640;2022-09-24T00:55:23;29.15;;;14.27;;
20697;SDS011;10508;50.956;4.640;2022-09-24T00:57:57;25.40;;;13.07;;
20697;SDS011;10508;50.956;4.640;2022-09-24T01:00:26;23.70;;;13.40;;
20697;SDS011;10508;50.956;4.640;2022-09-24T01:03:02;25.35;;;14.52;;
20697;SDS011;10508;50.956;4.640;2022-09-24T01:05:32;27.95;;;13.90;;
20697;SDS011;10508;50.956;4.640;2022-09-24T01:07:59;25.33;;;14.00;;
20697;SDS011;10508;50.956;4.640;2022-09-24T01:13:35;26.23;;;14.00;;
20697;SDS011;10508;50.956;4.640;2022-09-24T01:21:35;23.50;;;12.30;;
20697;SDS011;10508;50.956;4.640;2022-09-24T01:35:02;20.27;;;11.35;;
20697;SDS011;10508;50.956;4.640;2022-09-24T01:37:35;19.25;;;10.13;;
20697;SDS011;10508;50.956;4.640;2022-09-24T01:40:04;20.65;;;10.90;;
20697;SDS011;10508;50.956;4.640;2022-09-24T01:42:32;22.58;;;10.93;;
20697;SDS011;10508;50.956;4.640;2022-09-24T01:45:01;21.23;;;10.25;;
20697;SDS011;10508;50.956;4.640;2022-09-24T01:47:29;19.50;;;10.23;;
20697;SDS011;10508;50.956;4.640;2022-09-24T01:49:57;19.50;;;10.45;;
20697;SDS011;10508;50.956;4.640;2022-09-24T01:52:29;20.60;;;11.40;;
20697;SDS011;10508;50.956;4.640;2022-09-24T01:54:59;17.42;;;10.23;;
20697;SDS011;10508;50.956;4.640;2022-09-24T01:57:28;18.45;;;10.80;;
20697;SDS011;10508;50.956;4.640;2022-09-24T02:00:05;17.35;;;10.10;;
20697;SDS011;10508;50.956;4.640;2022-09-24T02:02:37;17.73;;;9.73;;
20697;SDS011;10508;50.956;4.640;2022-09-24T02:07:56;19.73;;;10.30;;
20697;SDS011;10508;50.956;4.640;2022-09-24T02:13:25;17.05;;;9.60;;
20697;SDS011;10508;50.956;4.640;2022-09-24T02:16:02;20.05;;;9.75;;
20697;SDS011;10508;50.956;4.640;2022-09-24T02:18:32;22.83;;;11.05;;
20697;SDS011;10508;50.956;4.640;2022-09-24T02:21:00;23.13;;;11.10;;
20697;SDS011;10508;50.956;4.640;2022-09-24T02:23:30;20.73;;;11.23;;
20697;SDS011;10508;50.956;4.640;2022-09-24T02:26:02;23.85;;;11.32;;
20697;SDS011;10508;50.956;4.640;2022-09-24T02:28:29;23.52;;;12.00;;
20697;SDS011;10508;50.956;4.640;2022-09-24T02:31:07;22.73;;;10.45;;
20697;SDS011;10508;50.956;4.640;2022-09-24T02:33:43;20.42;;;11.10;;
20697;SDS011;10508;50.956;4.640;2022-09-24T02:36:30;22.00;;;12.43;;
20697;SDS011;10508;50.956;4.640;2022-09-24T02:38:57;20.13;;;11.20;;
20697;SDS011;10508;50.956;4.640;2022-09-24T02:41:23;22.25;;;11.48;;
20697;SDS011;10508;50.956;4.640;2022-09-24T02:43:50;20.20;;;11.38;;
20697;SDS011;10508;50.956;4.640;2022-09-24T02:46:16;22.83;;;11.10;;
20697;SDS011;10508;50.956;4.640;2022-09-24T02:48:42;20.65;;;10.65;;
20697;SDS011;10508;50.956;4.640;2022-09-24T02:51:07;20.67;;;10.93;;
20697;SDS011;10508;50.956;4.640;2022-09-24T02:53:33;22.33;;;11.10;;
20697;SDS011;10508;50.956;4.640;2022-09-24T02:55:59;20.83;;;10.68;;
20697;SDS011;10508;50.956;4.640;2022-09-24T02:58:26;19.63;;;9.88;;
20697;SDS011;10508;50.956;4.640;2022-09-24T03:00:52;18.63;;;9.77;;
20697;SDS011;10508;50.956;4.640;2022-09-24T03:03:19;19.73;;;10.60;;
20697;SDS011;10508;50.956;4.640;2022-09-24T03:05:51;24.15;;;10.98;;
20697;SDS011;10508;50.956;4.640;2022-09-24T03:08:22;20.23;;;9.52;;
20697;SDS011;10508;50.956;4.640;2022-09-24T03:10:51;22.75;;;11.25;;
20697;SDS011;10508;50.956;4.640;2022-09-24T03:13:17;18.98;;;10.85;;
20697;SDS011;10508;50.956;4.640;2022-09-24T03:15:45;20.98;;;11.15;;
20697;SDS011;10508;50.956;4.640;2022-09-24T03:18:12;21.58;;;11.43;;
20697;SDS011;10508;50.956;4.640;2022-09-24T03:20:38;19.90;;;10.27;;
20697;SDS011;10508;50.956;4.640;2022-09-24T03:23:04;18.65;;;10.10;;
20697;SDS011;10508;50.956;4.640;2022-09-24T03:25:30;22.83;;;11.18;;
20697;SDS011;10508;50.956;4.640;2022-09-24T03:27:55;21.80;;;10.43;;
20697;SDS011;10508;50.956;4.640;2022-09-24T03:30:21;20.02;;;10.20;;
20697;SDS011;10508;50.956;4.640;2022-09-24T03:33:05;22.55;;;11.30;;
20697;SDS011;10508;50.956;4.640;2022-09-24T03:35:31;21.63;;;10.45;;
20697;SDS011;10508;50.956;4.640;2022-09-24T03:37:56;22.17;;;10.57;;
20697;SDS011;10508;50.956;4.640;2022-09-24T03:40:22;19.77;;;10.52;;
20697;SDS011;10508;50.956;4.640;2022-09-24T03:42:48;21.48;;;11.20;;
20697;SDS011;10508;50.956;4.640;2022-09-24T03:45:14;21.65;;;11.20;;
20697;SDS011;10508;50.956;4.640;2022-09-24T03:47:40;23.40;;;11.25;;
20697;SDS011;10508;50.956;4.640;2022-09-24T03:50:07;18.92;;;10.07;;
20697;SDS011;10508;50.956;4.640;2022-09-24T03:52:35;19.10;;;9.80;;
20697;SDS011;10508;50.956;4.640;2022-09-24T03:55:02;20.58;;;11.20;;
20697;SDS011;10508;50.956;4.640;2022-09-24T03:57:28;21.20;;;9.63;;
20697;SDS011;10508;50.956;4.640;2022-09-24T03:59:54;20.00;;;10.55;;
20697;SDS011;10508;50.956;4.640;2022-09-24T04:02:19;21.20;;;10.35;;
20697;SDS011;10508;50.956;4.640;2022-09-24T04:04:45;21.92;;;11.65;;
20697;SDS011;10508;50.956;4.640;2022-09-24T04:07:11;20.10;;;10.25;;
20697;SDS011;10508;50.956;4.640;2022-09-24T04:09:37;20.63;;;10.57;;
20697;SDS011;10508;50.956;4.640;2022-09-24T04:12:02;22.98;;;11.00;;
20697;SDS011;10508;50.956;4.640;2022-09-24T04:14:29;20.58;;;10.27;;
20697;SDS011;10508;50.956;4.640;2022-09-24T04:16:54;21.92;;;11.25;;
20697;SDS011;10508;50.956;4.640;2022-09-24T04:19:20;21.55;;;11.02;;
20697;SDS011;10508;50.956;4.640;2022-09-24T04:22:04;23.52;;;12.32;;
20697;SDS011;10508;50.956;4.640;2022-09-24T04:24:30;21.50;;;10.65;;
20697;SDS011;10508;50.956;4.640;2022-09-24T04:26:55;22.00;;;11.25;;
20697;SDS011;10508;50.956;4.640;2022-09-24T04:29:21;23.27;;;11.60;;
20697;SDS011;10508;50.956;4.640;2022-09-24T04:31:46;23.33;;;12.57;;
20697;SDS011;10508;50.956;4.640;2022-09-24T04:34:12;28.20;;;10.93;;
20697;SDS011;10508;50.956;4.640;2022-09-24T04:36:39;27.48;;;12.07;;
20697;SDS011;10508;50.956;4.640;2022-09-24T04:39:04;27.27;;;12.30;;
20697;SDS011;10508;50.956;4.640;2022-09-24T04:41:30;24.00;;;11.60;;
20697;SDS011;10508;50.956;4.640;2022-09-24T04:43:56;24.45;;;11.77;;
20697;SDS011;10508;50.956;4.640;2022-09-24T04:46:22;27.35;;;12.23;;
20697;SDS011;10508;50.956;4.640;2022-09-24T04:48:48;23.30;;;11.63;;
20697;SDS011;10508;50.956;4.640;2022-09-24T04:51:14;22.15;;;11.13;;
20697;SDS011;10508;50.956;4.640;2022-09-24T04:53:41;26.70;;;12.60;;
20697;SDS011;10508;50.956;4.640;2022-09-24T04:56:07;21.65;;;11.35;;
20697;SDS011;10508;50.956;4.640;2022-09-24T04:58:36;23.90;;;11.43;;
20697;SDS011;10508;50.956;4.640;2022-09-24T05:01:02;26.40;;;11.18;;
20697;SDS011;10508;50.956;4.640;2022-09-24T05:03:28;25.50;;;11.40;;
20697;SDS011;10508;50.956;4.640;2022-09-24T05:05:54;26.13;;;12.50;;
20697;SDS011;10508;50.956;4.640;2022-09-24T05:08:20;24.23;;;11.40;;
20697;SDS011;10508;50.956;4.640;2022-09-24T05:10:46;26.48;;;10.82;;
20697;SDS011;10508;50.956;4.640;2022-09-24T05:13:12;23.45;;;11.75;;
20697;SDS011;10508;50.956;4.640;2022-09-24T05:15:37;23.48;;;10.85;;
20697;SDS011;10508;50.956;4.640;2022-09-24T05:18:03;24.13;;;12.10;;
20697;SDS011;10508;50.956;4.640;2022-09-24T05:20:30;25.90;;;12.57;;
20697;SDS011;10508;50.956;4.640;2022-09-24T05:22:56;26.85;;;12.57;;
20697;SDS011;10508;50.956;4.640;2022-09-24T05:25:21;23.92;;;11.50;;
20697;SDS011;10508;50.956;4.640;2022-09-24T05:27:48;23.52;;;11.65;;
20697;SDS011;10508;50.956;4.640;2022-09-24T05:30:19;21.55;;;11.02;;
20697;SDS011;10508;50.956;4.640;2022-09-24T05:32:47;25.88;;;11.30;;
20697;SDS011;10508;50.956;4.640;2022-09-24T05:35:16;22.73;;;11.55;;
20697;SDS011;10508;50.956;4.640;2022-09-24T05:37:43;26.10;;;11.88;;
20697;SDS011;10508;50.956;4.640;2022-09-24T05:40:10;27.00;;;12.35;;
20697;SDS011;10508;50.956;4.640;2022-09-24T05:43:00;22.52;;;11.50;;
20697;SDS011;10508;50.956;4.640;2022-09-24T05:45:27;23.35;;;11.70;;
20697;SDS011;10508;50.956;4.640;2022-09-24T05:47:54;25.73;;;11.35;;
20697;SDS011;10508;50.956;4.640;2022-09-24T05:50:19;29.55;;;12.50;;
20697;SDS011;10508;50.956;4.640;2022-09-24T05:52:45;26.45;;;12.13;;
20697;SDS011;10508;50.956;4.640;2022-09-24T05:55:11;22.67;;;11.35;;
20697;SDS011;10508;50.956;4.640;2022-09-24T05:57:36;30.02;;;12.50;;
20697;SDS011;10508;50.956;4.640;2022-09-24T06:00:03;27.85;;;12.25;;
20697;SDS011;10508;50.956;4.640;2022-09-24T06:02:29;22.70;;;11.18;;
20697;SDS011;10508;50.956;4.640;2022-09-24T06:04:55;27.52;;;13.20;;
20697;SDS011;10508;50.956;4.640;2022-09-24T06:07:20;26.25;;;12.15;;
20697;SDS011;10508;50.956;4.640;2022-09-24T06:09:46;28.45;;;12.82;;
20697;SDS011;10508;50.956;4.640;2022-09-24T06:12:13;25.08;;;11.95;;
20697;SDS011;10508;50.956;4.640;2022-09-24T06:14:39;25.17;;;12.70;;
20697;SDS011;10508;50.956;4.640;2022-09-24T06:17:10;29.17;;;12.68;;
20697;SDS011;10508;50.956;4.640;2022-09-24T06:19:36;31.27;;;13.40;;
20697;SDS011;10508;50.956;4.640;2022-09-24T06:22:02;25.63;;;11.52;;
20697;SDS011;10508;50.956;4.640;2022-09-24T06:24:28;26.67;;;12.05;;
20697;SDS011;10508;50.956;4.640;2022-09-24T06:26:53;34.80;;;13.23;;
20697;SDS011;10508;50.956;4.640;2022-09-24T06:29:19;25.55;;;12.25;;
20697;SDS011;10508;50.956;4.640;2022-09-24T06:31:44;27.85;;;13.95;;
20697;SDS011;10508;50.956;4.640;2022-09-24T06:34:11;26.02;;;11.93;;
20697;SDS011;10508;50.956;4.640;2022-09-24T06:36:37;26.20;;;12.00;;
20697;SDS011;10508;50.956;4.640;2022-09-24T06:39:16;30.52;;;12.57;;
20697;SDS011;10508;50.956;4.640;2022-09-24T06:41:41;27.60;;;12.95;;
20697;SDS011;10508;50.956;4.640;2022-09-24T06:44:07;26.17;;;11.75;;
20697;SDS011;10508;50.956;4.640;2022-09-24T06:46:32;28.13;;;13.15;;
20697;SDS011;10508;50.956;4.640;2022-09-24T06:48:58;29.60;;;12.48;;
20697;SDS011;10508;50.956;4.640;2022-09-24T06:51:23;26.67;;;12.05;;
20697;SDS011;10508;50.956;4.640;2022-09-24T06:53:49;26.15;;;12.48;;
20697;SDS011;10508;50.956;4.640;2022-09-24T06:56:16;29.83;;;12.75;;
20697;SDS011;10508;50.956;4.640;2022-09-24T06:58:41;28.95;;;12.52;;
20697;SDS011;10508;50.956;4.640;2022-09-24T07:01:07;24.05;;;11.10;;
20697;SDS011;10508;50.956;4.640;2022-09-24T07:03:33;26.95;;;12.20;;
20697;SDS011;10508;50.956;4.640;2022-09-24T07:06:01;27.40;;;12.25;;
20697;SDS011;10508;50.956;4.640;2022-09-24T07:08:28;24.27;;;11.32;;
20697;SDS011;10508;50.956;4.640;2022-09-24T07:10:54;27.27;;;12.18;;
20697;SDS011;10508;50.956;4.640;2022-09-24T07:13:20;25.55;;;12.13;;
20697;SDS011;10508;50.956;4.640;2022-09-24T07:15:47;33.08;;;13.15;;
20697;SDS011;10508;50.956;4.640;2022-09-24T07:18:15;26.17;;;11.90;;
20697;SDS011;10508;50.956;4.640;2022-09-24T07:20:41;25.13;;;12.38;;
20697;SDS011;10508;50.956;4.640;2022-09-24T07:23:07;24.88;;;12.13;;
20697;SDS011;10508;50.956;4.640;2022-09-24T07:25:35;26.98;;;12.68;;
20697;SDS011;10508;50.956;4.640;2022-09-24T07:28:03;24.80;;;11.20;;
20697;SDS011;10508;50.956;4.640;2022-09-24T07:30:33;32.00;;;12.68;;
20697;SDS011;10508;50.956;4.640;2022-09-24T07:32:59;30.52;;;12.38;;
20697;SDS011;10508;50.956;4.640;2022-09-24T07:35:25;29.30;;;12.65;;
20697;SDS011;10508;50.956;4.640;2022-09-24T07:37:56;26.98;;;12.48;;
20697;SDS011;10508;50.956;4.640;2022-09-24T07:40:22;25.40;;;11.30;;
20697;SDS011;10508;50.956;4.640;2022-09-24T07:42:48;25.80;;;11.57;;
20697;SDS011;10508;50.956;4.640;2022-09-24T07:45:14;30.38;;;11.68;;
20697;SDS011;10508;50.956;4.640;2022-09-24T07:47:41;31.67;;;12.50;;
20697;SDS011;10508;50.956;4.640;2022-09-24T07:50:07;28.90;;;12.45;;
20697;SDS011;10508;50.956;4.640;2022-09-24T07:52:33;28.45;;;12.85;;
20697;SDS011;10508;50.956;4.640;2022-09-24T07:54:59;29.50;;;12.27;;
20697;SDS011;10508;50.956;4.640;2022-09-24T07:57:25;23.90;;;11.80;;
20697;SDS011;10508;50.956;4.640;2022-09-24T07:59:51;26.55;;;12.07;;
20697;SDS011;10508;50.956;4.640;2022-09-24T08:02:17;34.58;;;13.85;;
20697;SDS011;10508;50.956;4.640;2022-09-24T08:04:43;29.63;;;13.52;;
20697;SDS011;10508;50.956;4.640;2022-09-24T08:07:10;28.58;;;12.65;;
20697;SDS011;10508;50.956;4.640;2022-09-24T08:09:37;30.30;;;12.65;;
20697;SDS011;10508;50.956;4.640;2022-09-24T08:12:02;32.08;;;12.40;;
20697;SDS011;10508;50.956;4.640;2022-09-24T08:14:29;31.05;;;12.68;;
20697;SDS011;10508;50.956;4.640;2022-09-24T08:16:54;31.63;;;13.15;;
20697;SDS011;10508;50.956;4.640;2022-09-24T08:19:20;31.15;;;13.13;;
20697;SDS011;10508;50.956;4.640;2022-09-24T08:21:46;32.65;;;13.25;;
20697;SDS011;10508;50.956;4.640;2022-09-24T08:24:12;29.80;;;14.05;;
20697;SDS011;10508;50.956;4.640;2022-09-24T08:26:41;26.63;;;12.68;;
20697;SDS011;10508;50.956;4.640;2022-09-24T08:29:07;25.10;;;11.75;;
20697;SDS011;10508;50.956;4.640;2022-09-24T08:31:33;30.73;;;13.73;;
20697;SDS011;10508;50.956;4.640;2022-09-24T08:33:59;30.83;;;13.90;;
20697;SDS011;10508;50.956;4.640;2022-09-24T08:36:25;31.30;;;14.00;;
20697;SDS011;10508;50.956;4.640;2022-09-24T08:38:52;31.35;;;14.27;;
20697;SDS011;10508;50.956;4.640;2022-09-24T08:41:28;32.97;;;14.60;;
20697;SDS011;10508;50.956;4.640;2022-09-24T08:44:10;30.55;;;13.95;;
20697;SDS011;10508;50.956;4.640;2022-09-24T08:47:02;27.35;;;13.43;;
20697;SDS011;10508;50.956;4.640;2022-09-24T08:49:48;29.25;;;14.45;;
20697;SDS011;10508;50.956;4.640;2022-09-24T08:55:21;28.98;;;13.68;;
20697;SDS011;10508;50.956;4.640;2022-09-24T08:57:50;28.83;;;13.80;;
20697;SDS011;10508;50.956;4.640;2022-09-24T09:00:23;25.48;;;12.50;;
20697;SDS011;10508;50.956;4.640;2022-09-24T09:02:54;26.55;;;12.70;;
20697;SDS011;10508;50.956;4.640;2022-09-24T09:11:18;30.38;;;13.60;;
20697;SDS011;10508;50.956;4.640;2022-09-24T09:13:49;29.20;;;13.50;;
20697;SDS011;10508;50.956;4.640;2022-09-24T09:19:23;29.27;;;13.30;;
20697;SDS011;10508;50.956;4.640;2022-09-24T09:21:54;32.85;;;13.73;;
20697;SDS011;10508;50.956;4.640;2022-09-24T09:25:10;28.98;;;13.40;;
20697;SDS011;10508;50.956;4.640;2022-09-24T09:27:15;29.73;;;12.95;;
20697;SDS011;10508;50.956;4.640;2022-09-24T09:29:54;29.00;;;13.63;;
20697;SDS011;10508;50.956;4.640;2022-09-24T09:38:08;26.13;;;12.80;;
20697;SDS011;10508;50.956;4.640;2022-09-24T09:40:53;34.75;;;13.27;;
20697;SDS011;10508;50.956;4.640;2022-09-24T09:43:26;32.40;;;13.77;;
20697;SDS011;10508;50.956;4.640;2022-09-24T09:46:00;28.42;;;13.40;;
20697;SDS011;10508;50.956;4.640;2022-09-24T09:48:43;27.73;;;14.25;;
20697;SDS011;10508;50.956;4.640;2022-09-24T09:51:16;29.13;;;13.85;;
20697;SDS011;10508;50.956;4.640;2022-09-24T09:54:01;27.23;;;13.30;;
20697;SDS011;10508;50.956;4.640;2022-09-24T09:56:32;32.60;;;12.93;;
20697;SDS011;10508;50.956;4.640;2022-09-24T10:01:37;25.15;;;12.25;;
20697;SDS011;10508;50.956;4.640;2022-09-24T10:04:26;31.08;;;13.20;;
20697;SDS011;10508;50.956;4.640;2022-09-24T10:07:17;29.77;;;12.13;;
20697;SDS011;10508;50.956;4.640;2022-09-24T10:09:43;28.58;;;12.30;;
20697;SDS011;10508;50.956;4.640;2022-09-24T10:14:40;29.42;;;12.30;;
20697;SDS011;10508;50.956;4.640;2022-09-24T10:17:09;24.08;;;11.23;;
20697;SDS011;10508;50.956;4.640;2022-09-24T10:19:38;25.00;;;11.45;;
20697;SDS011;10508;50.956;4.640;2022-09-24T10:22:10;24.63;;;11.00;;
20697;SDS011;10508;50.956;4.640;2022-09-24T10:25:04;23.52;;;11.50;;
20697;SDS011;10508;50.956;4.640;2022-09-24T10:27:31;22.55;;;11.60;;
20697;SDS011;10508;50.956;4.640;2022-09-24T10:30:00;22.17;;;11.27;;
20697;SDS011;10508;50.956;4.640;2022-09-24T10:32:54;25.08;;;11.02;;
20697;SDS011;10508;50.956;4.640;2022-09-24T10:35:24;22.30;;;10.57;;
20697;SDS011;10508;50.956;4.640;2022-09-24T10:37:55;24.30;;;11.15;;
20697;SDS011;10508;50.956;4.640;2022-09-24T10:40:24;25.90;;;11.00;;
20697;SDS011;10508;50.956;4.640;2022-09-24T10:42:57;21.58;;;10.95;;
20697;SDS011;10508;50.956;4.640;2022-09-24T10:48:31;23.15;;;10.77;;
20697;SDS011;10508;50.956;4.640;2022-09-24T10:53:56;23.23;;;10.07;;
20697;SDS011;10508;50.956;4.640;2022-09-24T10:56:42;23.95;;;10.18;;
20697;SDS011;10508;50.956;4.640;2022-09-24T11:04:50;20.73;;;9.48;;
20697;SDS011;10508;50.956;4.640;2022-09-24T11:26:59;15.93;;;6.68;;
20697;SDS011;10508;50.956;4.640;2022-09-24T11:49:07;17.90;;;8.05;;
20697;SDS011;10508;50.956;4.640;2022-09-24T11:52:07;21.15;;;9.73;;
20697;SDS011;10508;50.956;4.640;2022-09-24T11:57:30;17.45;;;7.38;;
20697;SDS011;10508;50.956;4.640;2022-09-24T12:00:03;15.82;;;6.68;;
20697;SDS011;10508;50.956;4.640;2022-09-24T12:08:04;17.05;;;7.20;;
20697;SDS011;10508;50.956;4.640;2022-09-24T12:13:19;13.45;;;6.70;;
20697;SDS011;10508;50.956;4.640;2022-09-24T12:16:09;16.75;;;7.32;;
20697;SDS011;10508;50.956;4.640;2022-09-24T12:18:55;19.08;;;8.23;;
20697;SDS011;10508;50.956;4.640;2022-09-24T12:21:35;17.42;;;8.38;;
20697;SDS011;10508;50.956;4.640;2022-09-24T12:24:10;18.35;;;7.95;;
20697;SDS011;10508;50.956;4.640;2022-09-24T12:26:57;21.48;;;8.88;;
20697;SDS011;10508;50.956;4.640;2022-09-24T12:38:16;19.52;;;9.30;;
20697;SDS011;10508;50.956;4.640;2022-09-24T12:43:41;18.48;;;8.88;;
20697;SDS011;10508;50.956;4.640;2022-09-24T12:46:23;19.27;;;8.43;;
20697;SDS011;10508;50.956;4.640;2022-09-24T12:48:53;19.17;;;8.32;;
20697;SDS011;10508;50.956;4.640;2022-09-24T12:51:20;16.95;;;8.77;;
20697;SDS011;10508;50.956;4.640;2022-09-24T12:54:03;16.20;;;7.95;;
20697;SDS011;10508;50.956;4.640;2022-09-24T12:56:31;17.45;;;8.77;;
20697;SDS011;10508;50.956;4.640;2022-09-24T12:58:58;19.73;;;9.75;;
20697;SDS011;10508;50.956;4.640;2022-09-24T13:01:26;23.95;;;9.40;;
20697;SDS011;10508;50.956;4.640;2022-09-24T13:06:30;21.63;;;8.90;;
20697;SDS011;10508;50.956;4.640;2022-09-24T13:08:56;20.45;;;8.98;;
20697;SDS011;10508;50.956;4.640;2022-09-24T13:11:30;24.15;;;10.38;;
20697;SDS011;10508;50.956;4.640;2022-09-24T13:13:59;24.77;;;9.48;;
20697;SDS011;10508;50.956;4.640;2022-09-24T13:16:38;17.75;;;8.65;;
20697;SDS011;10508;50.956;4.640;2022-09-24T13:19:16;26.60;;;9.38;;
20697;SDS011;10508;50.956;4.640;2022-09-24T13:21:52;17.48;;;9.05;;
20697;SDS011;10508;50.956;4.640;2022-09-24T13:24:30;24.33;;;10.75;;
20697;SDS011;10508;50.956;4.640;2022-09-24T13:32:36;17.17;;;8.10;;
20697;SDS011;10508;50.956;4.640;2022-09-24T13:35:14;15.25;;;7.93;;
20697;SDS011;10508;50.956;4.640;2022-09-24T13:37:47;19.45;;;7.72;;
20697;SDS011;10508;50.956;4.640;2022-09-24T13:40:23;17.30;;;7.47;;
20697;SDS011;10508;50.956;4.640;2022-09-24T13:42:58;15.73;;;8.23;;
20697;SDS011;10508;50.956;4.640;2022-09-24T13:45:27;20.73;;;8.88;;
20697;SDS011;10508;50.956;4.640;2022-09-24T13:47:53;16.35;;;7.93;;
20697;SDS011;10508;50.956;4.640;2022-09-24T13:53:00;19.58;;;8.07;;
20697;SDS011;10508;50.956;4.640;2022-09-24T13:55:47;20.67;;;8.82;;
20697;SDS011;10508;50.956;4.640;2022-09-24T13:58:35;18.85;;;9.13;;
20697;SDS011;10508;50.956;4.640;2022-09-24T14:01:13;18.45;;;8.13;;
20697;SDS011;10508;50.956;4.640;2022-09-24T14:03:56;20.67;;;9.43;;
20697;SDS011;10508;50.956;4.640;2022-09-24T14:06:38;25.05;;;9.00;;
20697;SDS011;10508;50.956;4.640;2022-09-24T14:11:50;23.90;;;9.15;;
20697;SDS011;10508;50.956;4.640;2022-09-24T14:14:18;21.50;;;8.63;;
20697;SDS011;10508;50.956;4.640;2022-09-24T14:16:47;21.27;;;9.63;;
20697;SDS011;10508;50.956;4.640;2022-09-24T14:19:13;23.33;;;9.75;;
20697;SDS011;10508;50.956;4.640;2022-09-24T14:21:41;24.42;;;9.65;;
20697;SDS011;10508;50.956;4.640;2022-09-24T14:27:14;17.80;;;8.55;;
20697;SDS011;10508;50.956;4.640;2022-09-24T14:32:37;17.50;;;9.23;;
20697;SDS011;10508;50.956;4.640;2022-09-24T14:35:16;20.42;;;9.68;;
20697;SDS011;10508;50.956;4.640;2022-09-24T14:37:46;17.10;;;8.88;;
20697;SDS011;10508;50.956;4.640;2022-09-24T14:40:17;24.15;;;9.73;;
20697;SDS011;10508;50.956;4.640;2022-09-24T14:42:46;20.98;;;9.55;;
20697;SDS011;10508;50.956;4.640;2022-09-24T14:45:20;19.05;;;9.93;;
20697;SDS011;10508;50.956;4.640;2022-09-24T14:47:58;24.35;;;9.15;;
20697;SDS011;10508;50.956;4.640;2022-09-24T14:53:09;13.85;;;7.03;;
20697;SDS011;10508;50.956;4.640;2022-09-24T14:55:58;16.90;;;8.02;;
20697;SDS011;10508;50.956;4.640;2022-09-24T14:58:33;14.93;;;8.00;;
20697;SDS011;10508;50.956;4.640;2022-09-24T15:01:04;17.92;;;9.88;;
20697;SDS011;10508;50.956;4.640;2022-09-24T15:03:41;20.58;;;10.35;;
20697;SDS011;10508;50.956;4.640;2022-09-24T15:06:23;16.10;;;8.98;;
20697;SDS011;10508;50.956;4.640;2022-09-24T15:09:16;15.95;;;7.90;;
20697;SDS011;10508;50.956;4.640;2022-09-24T15:11:51;14.30;;;8.07;;
20697;SDS011;10508;50.956;4.640;2022-09-24T15:14:19;18.88;;;8.00;;
20697;SDS011;10508;50.956;4.640;2022-09-24T15:16:51;18.00;;;7.95;;
20697;SDS011;10508;50.956;4.640;2022-09-24T15:19:19;17.25;;;8.43;;
20697;SDS011;10508;50.956;4.640;2022-09-24T15:21:46;19.17;;;8.90;;
20697;SDS011;10508;50.956;4.640;2022-09-24T15:24:14;19.77;;;8.52;;
20697;SDS011;10508;50.956;4.640;2022-09-24T15:26:41;17.52;;;8.10;;
20697;SDS011;10508;50.956;4.640;2022-09-24T15:29:19;17.92;;;8.90;;
20697;SDS011;10508;50.956;4.640;2022-09-24T15:31:48;19.75;;;9.80;;
20697;SDS011;10508;50.956;4.640;2022-09-24T15:34:14;20.10;;;9.43;;
20697;SDS011;10508;50.956;4.640;2022-09-24T15:36:40;19.95;;;9.18;;
20697;SDS011;10508;50.956;4.640;2022-09-24T15:39:06;16.60;;;7.80;;
20697;SDS011;10508;50.956;4.640;2022-09-24T15:41:31;18.00;;;7.85;;
20697;SDS011;10508;50.956;4.640;2022-09-24T15:43:57;21.02;;;8.38;;
20697;SDS011;10508;50.956;4.640;2022-09-24T15:46:26;20.70;;;8.32;;
20697;SDS011;10508;50.956;4.640;2022-09-24T15:48:52;15.23;;;7.80;;
20697;SDS011;10508;50.956;4.640;2022-09-24T15:51:18;17.20;;;7.97;;
20697;SDS011;10508;50.956;4.640;2022-09-24T15:53:46;17.23;;;8.70;;
20697;SDS011;10508;50.956;4.640;2022-09-24T15:56:13;19.27;;;8.13;;
20697;SDS011;10508;50.956;4.640;2022-09-24T15:58:40;16.63;;;8.18;;
20697;SDS011;10508;50.956;4.640;2022-09-24T16:01:06;14.63;;;7.65;;
20697;SDS011;10508;50.956;4.640;2022-09-24T16:03:31;16.45;;;7.78;;
20697;SDS011;10508;50.956;4.640;2022-09-24T16:05:58;12.88;;;6.90;;
20697;SDS011;10508;50.956;4.640;2022-09-24T16:08:24;15.05;;;8.20;;
20697;SDS011;10508;50.956;4.640;2022-09-24T16:10:50;19.90;;;9.50;;
20697;SDS011;10508;50.956;4.640;2022-09-24T16:13:17;17.38;;;8.90;;
20697;SDS011;10508;50.956;4.640;2022-09-24T16:15:44;14.63;;;7.75;;
20697;SDS011;10508;50.956;4.640;2022-09-24T16:18:12;22.35;;;8.55;;
20697;SDS011;10508;50.956;4.640;2022-09-24T16:20:40;16.02;;;8.57;;
20697;SDS011;10508;50.956;4.640;2022-09-24T16:23:09;15.13;;;8.20;;
20697;SDS011;10508;50.956;4.640;2022-09-24T16:25:38;13.23;;;7.45;;
20697;SDS011;10508;50.956;4.640;2022-09-24T16:28:04;17.67;;;8.40;;
20697;SDS011;10508;50.956;4.640;2022-09-24T16:30:30;16.63;;;8.20;;
20697;SDS011;10508;50.956;4.640;2022-09-24T16:32:55;15.18;;;8.50;;
20697;SDS011;10508;50.956;4.640;2022-09-24T16:35:21;15.25;;;8.90;;
20697;SDS011;10508;50.956;4.640;2022-09-24T16:37:47;19.60;;;8.70;;
20697;SDS011;10508;50.956;4.640;2022-09-24T16:40:12;19.75;;;8.32;;
20697;SDS011;10508;50.956;4.640;2022-09-24T16:42:39;16.80;;;8.85;;
20697;SDS011;10508;50.956;4.640;2022-09-24T16:45:05;16.73;;;8.60;;
20697;SDS011;10508;50.956;4.640;2022-09-24T16:47:31;15.05;;;7.78;;
20697;SDS011;10508;50.956;4.640;2022-09-24T16:49:57;15.13;;;7.97;;
20697;SDS011;10508;50.956;4.640;2022-09-24T16:52:22;13.68;;;7.32;;
20697;SDS011;10508;50.956;4.640;2022-09-24T16:54:48;13.63;;;7.20;;
20697;SDS011;10508;50.956;4.640;2022-09-24T16:57:13;13.52;;;7.35;;
20697;SDS011;10508;50.956;4.640;2022-09-24T16:59:39;14.02;;;7.85;;
20697;SDS011;10508;50.956;4.640;2022-09-24T17:02:05;14.50;;;7.93;;
20697;SDS011;10508;50.956;4.640;2022-09-24T17:04:31;13.93;;;8.52;;
20697;SDS011;10508;50.956;4.640;2022-09-24T17:06:57;16.25;;;8.40;;
20697;SDS011;10508;50.956;4.640;2022-09-24T17:09:23;14.68;;;8.30;;